sensor_id;sensor_type;location;lat;lon;timestamp;P1;durP1;ratioP1;P2;durP2;ratioP2
31872;SDS011;22407;42.820;23.374;2023-06-10T00:00:42;11.97;;;5.40;;
31872;SDS011;22407;42.820;23.374;2023-06-10T00:03:07;10.90;;;5.45;;
31872;SDS011;22407;42.820;23.374;2023-06-10T00:05:33;11.55;;;5.50;;
31872;SDS011;22407;42.820;23.374;2023-06-10T00:08:00;10.80;;;5.37;;
31872;SDS011;22407;42.820;23.374;2023-06-10T00:10:26;13.25;;;5.60;;
31872;SDS011;22407;42.820;23.374;2023-06-10T00:12:52;11.60;;;6.00;;
31872;SDS011;22407;42.820;23.374;2023-06-10T00:15:17;10.83;;;5.60;;
31872;SDS011;22407;42.820;23.374;2023-06-10T00:17:42;12.93;;;5.90;;
31872;SDS011;22407;42.820;23.374;2023-06-10T00:20:08;12.73;;;5.63;;
31872;SDS011;22407;42.820;23.374;2023-06-10T00:22:36;12.38;;;5.88;;
31872;SDS011;22407;42.820;23.374;2023-06-10T00:25:02;13.20;;;5.67;;
31872;SDS011;22407;42.820;23.374;2023-06-10T00:27:28;12.43;;;5.50;;
31872;SDS011;22407;42.820;23.374;2023-06-10T00:29:59;12.85;;;6.15;;
31872;SDS011;22407;42.820;23.374;2023-06-10T00:32:25;10.40;;;5.70;;
31872;SDS011;22407;42.820;23.374;2023-06-10T00:34:50;10.07;;;5.50;;
31872;SDS011;22407;42.820;23.374;2023-06-10T00:37:15;10.67;;;5.70;;
31872;SDS011;22407;42.820;23.374;2023-06-10T00:39:41;11.00;;;5.77;;
31872;SDS011;22407;42.820;23.374;2023-06-10T00:42:06;11.17;;;5.57;;
31872;SDS011;22407;42.820;23.374;2023-06-10T00:44:32;12.90;;;5.80;;
31872;SDS011;22407;42.820;23.374;2023-06-10T00:46:57;14.77;;;6.53;;
31872;SDS011;22407;42.820;23.374;2023-06-10T00:49:23;12.43;;;5.55;;
31872;SDS011;22407;42.820;23.374;2023-06-10T00:51:48;12.13;;;6.30;;
31872;SDS011;22407;42.820;23.374;2023-06-10T00:54:13;11.17;;;5.87;;
31872;SDS011;22407;42.820;23.374;2023-06-10T00:56:39;10.70;;;5.90;;
31872;SDS011;22407;42.820;23.374;2023-06-10T00:59:04;11.87;;;6.00;;
31872;SDS011;22407;42.820;23.374;2023-06-10T01:01:29;11.15;;;5.45;;
31872;SDS011;22407;42.820;23.374;2023-06-10T01:03:55;13.57;;;5.33;;
31872;SDS011;22407;42.820;23.374;2023-06-10T01:06:24;10.53;;;4.90;;
31872;SDS011;22407;42.820;23.374;2023-06-10T01:09:00;12.35;;;5.15;;
31872;SDS011;22407;42.820;23.374;2023-06-10T01:11:43;12.07;;;4.83;;
31872;SDS011;22407;42.820;23.374;2023-06-10T01:14:11;9.30;;;5.05;;
31872;SDS011;22407;42.820;23.374;2023-06-10T01:16:39;10.90;;;5.22;;
31872;SDS011;22407;42.820;23.374;2023-06-10T01:19:05;9.52;;;5.28;;
31872;SDS011;22407;42.820;23.374;2023-06-10T01:21:31;10.33;;;4.90;;
31872;SDS011;22407;42.820;23.374;2023-06-10T01:23:57;10.90;;;4.65;;
31872;SDS011;22407;42.820;23.374;2023-06-10T01:26:25;11.32;;;5.25;;
31872;SDS011;22407;42.820;23.374;2023-06-10T01:29:13;9.10;;;5.30;;
31872;SDS011;22407;42.820;23.374;2023-06-10T01:32:01;9.30;;;4.82;;
31872;SDS011;22407;42.820;23.374;2023-06-10T01:34:25;9.98;;;4.88;;
31872;SDS011;22407;42.820;23.374;2023-06-10T01:36:54;11.50;;;5.70;;
31872;SDS011;22407;42.820;23.374;2023-06-10T01:39:22;10.75;;;5.30;;
31872;SDS011;22407;42.820;23.374;2023-06-10T01:41:49;11.00;;;5.40;;
31872;SDS011;22407;42.820;23.374;2023-06-10T01:44:17;10.80;;;5.53;;
31872;SDS011;22407;42.820;23.374;2023-06-10T01:46:43;12.75;;;5.70;;
31872;SDS011;22407;42.820;23.374;2023-06-10T01:49:08;13.50;;;6.00;;
31872;SDS011;22407;42.820;23.374;2023-06-10T01:51:33;9.97;;;5.80;;
31872;SDS011;22407;42.820;23.374;2023-06-10T01:53:59;12.27;;;6.20;;
31872;SDS011;22407;42.820;23.374;2023-06-10T01:56:24;13.77;;;6.80;;
31872;SDS011;22407;42.820;23.374;2023-06-10T01:58:49;12.43;;;5.40;;
31872;SDS011;22407;42.820;23.374;2023-06-10T02:01:15;13.40;;;6.50;;
31872;SDS011;22407;42.820;23.374;2023-06-10T02:03:40;11.53;;;6.03;;
31872;SDS011;22407;42.820;23.374;2023-06-10T02:06:06;12.97;;;6.03;;
31872;SDS011;22407;42.820;23.374;2023-06-10T02:08:31;10.87;;;6.00;;
31872;SDS011;22407;42.820;23.374;2023-06-10T02:10:56;11.23;;;5.70;;
31872;SDS011;22407;42.820;23.374;2023-06-10T02:13:21;11.67;;;6.27;;
31872;SDS011;22407;42.820;23.374;2023-06-10T02:15:47;16.13;;;6.57;;
31872;SDS011;22407;42.820;23.374;2023-06-10T02:18:12;12.47;;;6.00;;
31872;SDS011;22407;42.820;23.374;2023-06-10T02:20:38;12.87;;;7.60;;
31872;SDS011;22407;42.820;23.374;2023-06-10T02:23:03;13.18;;;6.40;;
31872;SDS011;22407;42.820;23.374;2023-06-10T02:25:28;11.37;;;5.80;;
31872;SDS011;22407;42.820;23.374;2023-06-10T02:27:54;13.10;;;6.30;;
31872;SDS011;22407;42.820;23.374;2023-06-10T02:30:19;13.83;;;6.63;;
31872;SDS011;22407;42.820;23.374;2023-06-10T02:32:45;11.33;;;6.30;;
31872;SDS011;22407;42.820;23.374;2023-06-10T02:35:16;13.15;;;6.78;;
31872;SDS011;22407;42.820;23.374;2023-06-10T02:37:42;14.52;;;6.20;;
31872;SDS011;22407;42.820;23.374;2023-06-10T02:40:07;12.83;;;6.80;;
31872;SDS011;22407;42.820;23.374;2023-06-10T02:42:33;12.35;;;6.75;;
31872;SDS011;22407;42.820;23.374;2023-06-10T02:44:58;14.10;;;6.43;;
31872;SDS011;22407;42.820;23.374;2023-06-10T02:47:24;13.67;;;7.47;;
31872;SDS011;22407;42.820;23.374;2023-06-10T02:49:49;13.52;;;7.20;;
31872;SDS011;22407;42.820;23.374;2023-06-10T02:52:17;14.30;;;7.40;;
31872;SDS011;22407;42.820;23.374;2023-06-10T02:54:43;14.70;;;7.40;;
31872;SDS011;22407;42.820;23.374;2023-06-10T02:57:08;15.43;;;6.97;;
31872;SDS011;22407;42.820;23.374;2023-06-10T02:59:35;16.45;;;7.00;;
31872;SDS011;22407;42.820;23.374;2023-06-10T03:02:00;13.33;;;7.30;;
31872;SDS011;22407;42.820;23.374;2023-06-10T03:04:26;14.25;;;6.72;;
31872;SDS011;22407;42.820;23.374;2023-06-10T03:06:53;12.73;;;6.28;;
31872;SDS011;22407;42.820;23.374;2023-06-10T03:09:19;11.63;;;6.10;;
31872;SDS011;22407;42.820;23.374;2023-06-10T03:11:44;12.70;;;5.80;;
31872;SDS011;22407;42.820;23.374;2023-06-10T03:14:09;11.93;;;5.83;;
31872;SDS011;22407;42.820;23.374;2023-06-10T03:16:35;12.07;;;5.90;;
31872;SDS011;22407;42.820;23.374;2023-06-10T03:19:00;11.03;;;5.73;;
31872;SDS011;22407;42.820;23.374;2023-06-10T03:21:25;12.20;;;6.07;;
31872;SDS011;22407;42.820;23.374;2023-06-10T03:23:52;11.68;;;6.05;;
31872;SDS011;22407;42.820;23.374;2023-06-10T03:26:17;10.80;;;5.57;;
31872;SDS011;22407;42.820;23.374;2023-06-10T03:28:46;10.70;;;5.90;;
31872;SDS011;22407;42.820;23.374;2023-06-10T03:31:11;10.43;;;5.50;;
31872;SDS011;22407;42.820;23.374;2023-06-10T03:33:37;13.57;;;5.87;;
31872;SDS011;22407;42.820;23.374;2023-06-10T03:36:02;12.17;;;5.60;;
31872;SDS011;22407;42.820;23.374;2023-06-10T03:38:27;10.53;;;4.80;;
31872;SDS011;22407;42.820;23.374;2023-06-10T03:40:53;11.07;;;5.53;;
31872;SDS011;22407;42.820;23.374;2023-06-10T03:43:18;11.02;;;5.72;;
31872;SDS011;22407;42.820;23.374;2023-06-10T03:45:43;11.07;;;5.77;;
31872;SDS011;22407;42.820;23.374;2023-06-10T03:48:09;12.30;;;6.00;;
31872;SDS011;22407;42.820;23.374;2023-06-10T03:50:34;12.33;;;6.07;;
31872;SDS011;22407;42.820;23.374;2023-06-10T03:53:01;10.80;;;6.05;;
31872;SDS011;22407;42.820;23.374;2023-06-10T03:55:26;11.57;;;6.40;;
31872;SDS011;22407;42.820;23.374;2023-06-10T03:57:51;11.77;;;6.00;;
31872;SDS011;22407;42.820;23.374;2023-06-10T04:00:17;11.60;;;6.10;;
31872;SDS011;22407;42.820;23.374;2023-06-10T04:02:43;11.50;;;5.83;;
31872;SDS011;22407;42.820;23.374;2023-06-10T04:05:13;11.95;;;6.55;;
31872;SDS011;22407;42.820;23.374;2023-06-10T04:07:39;12.77;;;6.15;;
31872;SDS011;22407;42.820;23.374;2023-06-10T04:10:06;11.52;;;6.40;;
31872;SDS011;22407;42.820;23.374;2023-06-10T04:12:31;11.50;;;5.63;;
31872;SDS011;22407;42.820;23.374;2023-06-10T04:14:57;12.10;;;6.05;;
31872;SDS011;22407;42.820;23.374;2023-06-10T04:17:22;13.10;;;6.07;;
31872;SDS011;22407;42.820;23.374;2023-06-10T04:19:47;10.30;;;5.60;;
31872;SDS011;22407;42.820;23.374;2023-06-10T04:22:13;11.53;;;5.60;;
31872;SDS011;22407;42.820;23.374;2023-06-10T04:24:38;11.73;;;6.20;;
31872;SDS011;22407;42.820;23.374;2023-06-10T04:27:03;10.93;;;5.43;;
31872;SDS011;22407;42.820;23.374;2023-06-10T04:29:29;10.60;;;5.33;;
31872;SDS011;22407;42.820;23.374;2023-06-10T04:31:54;10.90;;;5.67;;
31872;SDS011;22407;42.820;23.374;2023-06-10T04:34:19;11.87;;;5.40;;
31872;SDS011;22407;42.820;23.374;2023-06-10T04:36:45;11.97;;;4.97;;
31872;SDS011;22407;42.820;23.374;2023-06-10T04:39:10;9.90;;;5.67;;
31872;SDS011;22407;42.820;23.374;2023-06-10T04:41:35;11.37;;;5.17;;
31872;SDS011;22407;42.820;23.374;2023-06-10T04:44:01;12.97;;;5.73;;
31872;SDS011;22407;42.820;23.374;2023-06-10T04:46:26;11.50;;;5.70;;
31872;SDS011;22407;42.820;23.374;2023-06-10T04:48:51;11.97;;;5.73;;
31872;SDS011;22407;42.820;23.374;2023-06-10T04:51:17;11.77;;;5.70;;
31872;SDS011;22407;42.820;23.374;2023-06-10T04:53:42;10.07;;;5.73;;
31872;SDS011;22407;42.820;23.374;2023-06-10T04:56:07;11.00;;;6.07;;
31872;SDS011;22407;42.820;23.374;2023-06-10T04:58:33;11.73;;;6.13;;
31872;SDS011;22407;42.820;23.374;2023-06-10T05:00:58;10.43;;;5.67;;
31872;SDS011;22407;42.820;23.374;2023-06-10T05:03:24;10.95;;;4.93;;
31872;SDS011;22407;42.820;23.374;2023-06-10T05:05:49;11.53;;;5.33;;
31872;SDS011;22407;42.820;23.374;2023-06-10T05:08:15;10.88;;;6.20;;
31872;SDS011;22407;42.820;23.374;2023-06-10T05:10:40;13.73;;;6.50;;
31872;SDS011;22407;42.820;23.374;2023-06-10T05:13:06;12.00;;;6.37;;
31872;SDS011;22407;42.820;23.374;2023-06-10T05:15:31;14.17;;;6.53;;
31872;SDS011;22407;42.820;23.374;2023-06-10T05:17:56;12.03;;;6.73;;
31872;SDS011;22407;42.820;23.374;2023-06-10T05:20:22;12.38;;;7.32;;
31872;SDS011;22407;42.820;23.374;2023-06-10T05:22:48;16.37;;;7.57;;
31872;SDS011;22407;42.820;23.374;2023-06-10T05:25:13;16.97;;;8.00;;
31872;SDS011;22407;42.820;23.374;2023-06-10T05:27:38;13.83;;;7.47;;
31872;SDS011;22407;42.820;23.374;2023-06-10T05:30:05;11.30;;;6.53;;
31872;SDS011;22407;42.820;23.374;2023-06-10T05:32:35;12.93;;;6.80;;
31872;SDS011;22407;42.820;23.374;2023-06-10T05:35:00;15.60;;;7.68;;
31872;SDS011;22407;42.820;23.374;2023-06-10T05:37:26;16.00;;;7.17;;
31872;SDS011;22407;42.820;23.374;2023-06-10T05:39:51;13.77;;;7.50;;
31872;SDS011;22407;42.820;23.374;2023-06-10T05:42:17;14.80;;;7.87;;
31872;SDS011;22407;42.820;23.374;2023-06-10T05:44:42;17.77;;;7.87;;
31872;SDS011;22407;42.820;23.374;2023-06-10T05:47:08;17.70;;;8.57;;
31872;SDS011;22407;42.820;23.374;2023-06-10T05:49:33;12.90;;;7.30;;
31872;SDS011;22407;42.820;23.374;2023-06-10T05:51:59;14.27;;;7.50;;
31872;SDS011;22407;42.820;23.374;2023-06-10T05:54:25;14.53;;;7.67;;
31872;SDS011;22407;42.820;23.374;2023-06-10T05:56:50;12.75;;;7.05;;
31872;SDS011;22407;42.820;23.374;2023-06-10T05:59:15;13.03;;;7.53;;
31872;SDS011;22407;42.820;23.374;2023-06-10T06:01:41;17.23;;;7.83;;
31872;SDS011;22407;42.820;23.374;2023-06-10T06:04:06;12.93;;;7.03;;
31872;SDS011;22407;42.820;23.374;2023-06-10T06:06:31;13.37;;;6.60;;
31872;SDS011;22407;42.820;23.374;2023-06-10T06:08:57;12.65;;;7.22;;
31872;SDS011;22407;42.820;23.374;2023-06-10T06:11:22;12.50;;;7.00;;
31872;SDS011;22407;42.820;23.374;2023-06-10T06:13:48;13.97;;;7.03;;
31872;SDS011;22407;42.820;23.374;2023-06-10T06:16:13;12.57;;;7.10;;
31872;SDS011;22407;42.820;23.374;2023-06-10T06:18:38;14.80;;;7.63;;
31872;SDS011;22407;42.820;23.374;2023-06-10T06:21:04;13.87;;;7.17;;
31872;SDS011;22407;42.820;23.374;2023-06-10T06:23:29;12.60;;;7.20;;
31872;SDS011;22407;42.820;23.374;2023-06-10T06:25:55;11.40;;;6.22;;
31872;SDS011;22407;42.820;23.374;2023-06-10T06:28:20;11.70;;;7.27;;
31872;SDS011;22407;42.820;23.374;2023-06-10T06:30:47;12.45;;;6.50;;
31872;SDS011;22407;42.820;23.374;2023-06-10T06:33:12;13.13;;;6.73;;
31872;SDS011;22407;42.820;23.374;2023-06-10T06:35:38;14.57;;;7.00;;
31872;SDS011;22407;42.820;23.374;2023-06-10T06:38:03;13.88;;;7.10;;
31872;SDS011;22407;42.820;23.374;2023-06-10T06:40:29;13.17;;;6.70;;
31872;SDS011;22407;42.820;23.374;2023-06-10T06:42:54;13.03;;;6.20;;
31872;SDS011;22407;42.820;23.374;2023-06-10T06:45:19;9.87;;;5.40;;
31872;SDS011;22407;42.820;23.374;2023-06-10T06:47:45;10.52;;;5.60;;
31872;SDS011;22407;42.820;23.374;2023-06-10T06:50:10;11.33;;;5.97;;
31872;SDS011;22407;42.820;23.374;2023-06-10T06:52:36;14.97;;;6.40;;
31872;SDS011;22407;42.820;23.374;2023-06-10T06:55:01;11.93;;;5.40;;
31872;SDS011;22407;42.820;23.374;2023-06-10T06:57:27;8.95;;;4.75;;
31872;SDS011;22407;42.820;23.374;2023-06-10T06:59:52;10.63;;;4.87;;
31872;SDS011;22407;42.820;23.374;2023-06-10T07:02:17;9.53;;;4.17;;
31872;SDS011;22407;42.820;23.374;2023-06-10T07:04:44;8.98;;;4.35;;
31872;SDS011;22407;42.820;23.374;2023-06-10T07:07:09;8.60;;;4.70;;
31872;SDS011;22407;42.820;23.374;2023-06-10T07:09:34;10.63;;;4.53;;
31872;SDS011;22407;42.820;23.374;2023-06-10T07:12:00;8.10;;;4.40;;
31872;SDS011;22407;42.820;23.374;2023-06-10T07:14:25;8.70;;;4.50;;
31872;SDS011;22407;42.820;23.374;2023-06-10T07:16:56;10.23;;;4.43;;
31872;SDS011;22407;42.820;23.374;2023-06-10T07:19:24;11.60;;;4.50;;
31872;SDS011;22407;42.820;23.374;2023-06-10T07:21:50;11.88;;;4.50;;
31872;SDS011;22407;42.820;23.374;2023-06-10T07:24:15;10.20;;;4.87;;
31872;SDS011;22407;42.820;23.374;2023-06-10T07:26:40;8.50;;;5.00;;
31872;SDS011;22407;42.820;23.374;2023-06-10T07:29:05;11.80;;;5.67;;
31872;SDS011;22407;42.820;23.374;2023-06-10T07:31:31;9.93;;;4.90;;
31872;SDS011;22407;42.820;23.374;2023-06-10T07:33:56;10.57;;;5.20;;
31872;SDS011;22407;42.820;23.374;2023-06-10T07:36:21;12.23;;;5.33;;
31872;SDS011;22407;42.820;23.374;2023-06-10T07:38:47;13.57;;;5.67;;
31872;SDS011;22407;42.820;23.374;2023-06-10T07:41:12;14.03;;;5.87;;
31872;SDS011;22407;42.820;23.374;2023-06-10T07:43:37;11.73;;;7.10;;
31872;SDS011;22407;42.820;23.374;2023-06-10T07:46:03;11.30;;;6.07;;
31872;SDS011;22407;42.820;23.374;2023-06-10T07:48:30;10.05;;;6.07;;
31872;SDS011;22407;42.820;23.374;2023-06-10T07:50:55;12.50;;;5.97;;
31872;SDS011;22407;42.820;23.374;2023-06-10T07:53:21;10.90;;;6.30;;
31872;SDS011;22407;42.820;23.374;2023-06-10T07:55:46;11.90;;;5.53;;
31872;SDS011;22407;42.820;23.374;2023-06-10T07:58:11;8.83;;;5.40;;
31872;SDS011;22407;42.820;23.374;2023-06-10T08:00:36;13.43;;;5.50;;
31872;SDS011;22407;42.820;23.374;2023-06-10T08:03:02;12.07;;;5.28;;
31872;SDS011;22407;42.820;23.374;2023-06-10T08:05:27;11.93;;;5.00;;
31872;SDS011;22407;42.820;23.374;2023-06-10T08:07:53;9.87;;;4.97;;
31872;SDS011;22407;42.820;23.374;2023-06-10T08:10:18;10.73;;;5.63;;
31872;SDS011;22407;42.820;23.374;2023-06-10T08:12:43;9.87;;;4.40;;
31872;SDS011;22407;42.820;23.374;2023-06-10T08:15:08;11.03;;;5.17;;
31872;SDS011;22407;42.820;23.374;2023-06-10T08:17:34;9.87;;;4.40;;
31872;SDS011;22407;42.820;23.374;2023-06-10T08:20:00;10.02;;;4.50;;
31872;SDS011;22407;42.820;23.374;2023-06-10T08:22:25;8.43;;;3.60;;
31872;SDS011;22407;42.820;23.374;2023-06-10T08:24:50;8.90;;;3.50;;
31872;SDS011;22407;42.820;23.374;2023-06-10T08:27:16;8.20;;;3.67;;
31872;SDS011;22407;42.820;23.374;2023-06-10T08:29:41;7.00;;;3.80;;
31872;SDS011;22407;42.820;23.374;2023-06-10T08:32:06;7.33;;;3.43;;
31872;SDS011;22407;42.820;23.374;2023-06-10T08:34:33;8.23;;;3.83;;
31872;SDS011;22407;42.820;23.374;2023-06-10T08:36:59;6.65;;;3.25;;
31872;SDS011;22407;42.820;23.374;2023-06-10T08:39:24;6.67;;;3.50;;
31872;SDS011;22407;42.820;23.374;2023-06-10T08:44:29;6.97;;;3.28;;
31872;SDS011;22407;42.820;23.374;2023-06-10T08:47:01;7.80;;;3.00;;
31872;SDS011;22407;42.820;23.374;2023-06-10T08:49:30;7.68;;;3.20;;
31872;SDS011;22407;42.820;23.374;2023-06-10T08:51:58;6.10;;;3.00;;
31872;SDS011;22407;42.820;23.374;2023-06-10T08:54:25;6.68;;;3.10;;
31872;SDS011;22407;42.820;23.374;2023-06-10T08:56:51;8.65;;;3.53;;
31872;SDS011;22407;42.820;23.374;2023-06-10T08:59:19;6.85;;;3.03;;
31872;SDS011;22407;42.820;23.374;2023-06-10T09:01:46;7.78;;;3.58;;
31872;SDS011;22407;42.820;23.374;2023-06-10T09:04:12;7.60;;;3.50;;
31872;SDS011;22407;42.820;23.374;2023-06-10T09:06:37;8.80;;;3.50;;
31872;SDS011;22407;42.820;23.374;2023-06-10T09:09:04;6.67;;;3.40;;
31872;SDS011;22407;42.820;23.374;2023-06-10T09:11:30;6.97;;;3.33;;
31872;SDS011;22407;42.820;23.374;2023-06-10T09:13:56;7.47;;;3.40;;
31872;SDS011;22407;42.820;23.374;2023-06-10T09:16:22;6.77;;;3.53;;
31872;SDS011;22407;42.820;23.374;2023-06-10T09:18:47;8.68;;;3.85;;
31872;SDS011;22407;42.820;23.374;2023-06-10T09:21:13;7.23;;;3.50;;
31872;SDS011;22407;42.820;23.374;2023-06-10T09:23:38;9.07;;;3.40;;
31872;SDS011;22407;42.820;23.374;2023-06-10T09:26:07;6.30;;;3.23;;
31872;SDS011;22407;42.820;23.374;2023-06-10T09:28:33;7.57;;;3.50;;
31872;SDS011;22407;42.820;23.374;2023-06-10T09:31:04;7.07;;;3.43;;
31872;SDS011;22407;42.820;23.374;2023-06-10T09:33:30;7.63;;;3.40;;
31872;SDS011;22407;42.820;23.374;2023-06-10T09:35:55;7.27;;;3.20;;
31872;SDS011;22407;42.820;23.374;2023-06-10T09:38:28;6.80;;;3.50;;
31872;SDS011;22407;42.820;23.374;2023-06-10T09:40:54;7.57;;;3.10;;
31872;SDS011;22407;42.820;23.374;2023-06-10T09:43:19;7.90;;;3.30;;
31872;SDS011;22407;42.820;23.374;2023-06-10T09:45:47;12.63;;;3.63;;
31872;SDS011;22407;42.820;23.374;2023-06-10T09:48:12;7.53;;;3.20;;
31872;SDS011;22407;42.820;23.374;2023-06-10T09:50:41;8.53;;;3.30;;
31872;SDS011;22407;42.820;23.374;2023-06-10T09:53:07;7.25;;;3.50;;
31872;SDS011;22407;42.820;23.374;2023-06-10T09:55:33;8.47;;;3.53;;
31872;SDS011;22407;42.820;23.374;2023-06-10T09:57:59;6.43;;;2.80;;
31872;SDS011;22407;42.820;23.374;2023-06-10T10:00:24;12.17;;;4.10;;
31872;SDS011;22407;42.820;23.374;2023-06-10T10:02:51;7.45;;;3.40;;
31872;SDS011;22407;42.820;23.374;2023-06-10T10:05:17;6.03;;;3.30;;
31872;SDS011;22407;42.820;23.374;2023-06-10T10:07:43;8.20;;;3.22;;
31872;SDS011;22407;42.820;23.374;2023-06-10T10:10:09;6.70;;;3.38;;
31872;SDS011;22407;42.820;23.374;2023-06-10T10:12:35;7.20;;;3.00;;
31872;SDS011;22407;42.820;23.374;2023-06-10T10:15:00;8.52;;;3.38;;
31872;SDS011;22407;42.820;23.374;2023-06-10T10:17:27;6.93;;;3.42;;
31872;SDS011;22407;42.820;23.374;2023-06-10T10:20:01;7.97;;;3.67;;
31872;SDS011;22407;42.820;23.374;2023-06-10T10:22:29;7.85;;;3.38;;
31872;SDS011;22407;42.820;23.374;2023-06-10T10:24:56;9.47;;;3.80;;
31872;SDS011;22407;42.820;23.374;2023-06-10T10:27:26;6.70;;;3.42;;
31872;SDS011;22407;42.820;23.374;2023-06-10T10:29:53;7.00;;;3.35;;
31872;SDS011;22407;42.820;23.374;2023-06-10T10:32:20;9.93;;;3.40;;
31872;SDS011;22407;42.820;23.374;2023-06-10T10:34:49;9.05;;;3.55;;
31872;SDS011;22407;42.820;23.374;2023-06-10T10:37:19;11.03;;;3.20;;
31872;SDS011;22407;42.820;23.374;2023-06-10T10:39:45;6.93;;;2.92;;
31872;SDS011;22407;42.820;23.374;2023-06-10T10:42:10;9.13;;;3.80;;
31872;SDS011;22407;42.820;23.374;2023-06-10T10:44:39;6.32;;;2.85;;
31872;SDS011;22407;42.820;23.374;2023-06-10T10:47:06;6.38;;;3.10;;
31872;SDS011;22407;42.820;23.374;2023-06-10T10:49:32;6.20;;;2.60;;
31872;SDS011;22407;42.820;23.374;2023-06-10T10:51:59;6.53;;;2.90;;
31872;SDS011;22407;42.820;23.374;2023-06-10T10:54:28;6.20;;;2.95;;
31872;SDS011;22407;42.820;23.374;2023-06-10T10:57:10;6.78;;;3.03;;
31872;SDS011;22407;42.820;23.374;2023-06-10T11:02:10;7.20;;;3.07;;
31872;SDS011;22407;42.820;23.374;2023-06-10T11:04:35;7.57;;;2.93;;
31872;SDS011;22407;42.820;23.374;2023-06-10T11:07:06;6.43;;;2.60;;
31872;SDS011;22407;42.820;23.374;2023-06-10T11:09:32;7.47;;;3.00;;
31872;SDS011;22407;42.820;23.374;2023-06-10T11:11:58;6.22;;;3.00;;
31872;SDS011;22407;42.820;23.374;2023-06-10T11:14:27;7.43;;;3.30;;
31872;SDS011;22407;42.820;23.374;2023-06-10T11:16:58;8.98;;;3.65;;
31872;SDS011;22407;42.820;23.374;2023-06-10T11:19:36;8.80;;;3.50;;
31872;SDS011;22407;42.820;23.374;2023-06-10T11:22:05;7.70;;;3.30;;
31872;SDS011;22407;42.820;23.374;2023-06-10T11:24:30;7.38;;;3.65;;
31872;SDS011;22407;42.820;23.374;2023-06-10T11:27:14;7.50;;;3.20;;
31872;SDS011;22407;42.820;23.374;2023-06-10T11:29:39;7.97;;;3.10;;
31872;SDS011;22407;42.820;23.374;2023-06-10T11:32:05;8.10;;;3.47;;
31872;SDS011;22407;42.820;23.374;2023-06-10T11:34:31;9.97;;;3.00;;
31872;SDS011;22407;42.820;23.374;2023-06-10T11:36:56;8.20;;;3.13;;
31872;SDS011;22407;42.820;23.374;2023-06-10T11:39:22;7.43;;;3.30;;
31872;SDS011;22407;42.820;23.374;2023-06-10T11:41:49;8.07;;;3.35;;
31872;SDS011;22407;42.820;23.374;2023-06-10T11:44:17;8.10;;;3.67;;
31872;SDS011;22407;42.820;23.374;2023-06-10T11:46:47;6.57;;;3.40;;
31872;SDS011;22407;42.820;23.374;2023-06-10T11:49:12;7.00;;;3.60;;
31872;SDS011;22407;42.820;23.374;2023-06-10T11:51:38;7.05;;;3.78;;
31872;SDS011;22407;42.820;23.374;2023-06-10T11:54:05;7.33;;;3.57;;
31872;SDS011;22407;42.820;23.374;2023-06-10T11:56:31;7.60;;;3.53;;
31872;SDS011;22407;42.820;23.374;2023-06-10T11:58:57;7.43;;;3.53;;
31872;SDS011;22407;42.820;23.374;2023-06-10T12:01:23;8.15;;;3.28;;
31872;SDS011;22407;42.820;23.374;2023-06-10T12:04:05;6.72;;;3.53;;
31872;SDS011;22407;42.820;23.374;2023-06-10T12:06:40;7.22;;;3.90;;
31872;SDS011;22407;42.820;23.374;2023-06-10T12:09:07;7.93;;;3.83;;
31872;SDS011;22407;42.820;23.374;2023-06-10T12:11:32;9.30;;;3.93;;
31872;SDS011;22407;42.820;23.374;2023-06-10T12:13:58;7.15;;;3.75;;
31872;SDS011;22407;42.820;23.374;2023-06-10T12:16:23;7.30;;;3.63;;
31872;SDS011;22407;42.820;23.374;2023-06-10T12:18:48;7.07;;;3.57;;
31872;SDS011;22407;42.820;23.374;2023-06-10T12:21:20;8.53;;;3.50;;
31872;SDS011;22407;42.820;23.374;2023-06-10T12:26:42;7.93;;;3.50;;
31872;SDS011;22407;42.820;23.374;2023-06-10T12:29:16;6.60;;;3.50;;
31872;SDS011;22407;42.820;23.374;2023-06-10T12:31:58;8.40;;;3.50;;
31872;SDS011;22407;42.820;23.374;2023-06-10T12:34:34;9.73;;;3.20;;
31872;SDS011;22407;42.820;23.374;2023-06-10T12:37:01;9.57;;;3.70;;
31872;SDS011;22407;42.820;23.374;2023-06-10T12:39:26;7.88;;;3.55;;
31872;SDS011;22407;42.820;23.374;2023-06-10T12:41:52;9.30;;;3.37;;
31872;SDS011;22407;42.820;23.374;2023-06-10T12:44:17;8.97;;;3.37;;
31872;SDS011;22407;42.820;23.374;2023-06-10T12:46:43;7.30;;;3.50;;
31872;SDS011;22407;42.820;23.374;2023-06-10T12:49:18;8.00;;;3.60;;
31872;SDS011;22407;42.820;23.374;2023-06-10T12:51:43;6.88;;;3.17;;
31872;SDS011;22407;42.820;23.374;2023-06-10T12:54:09;8.18;;;3.58;;
31872;SDS011;22407;42.820;23.374;2023-06-10T12:56:34;7.90;;;3.30;;
31872;SDS011;22407;42.820;23.374;2023-06-10T12:59:00;7.27;;;3.40;;
31872;SDS011;22407;42.820;23.374;2023-06-10T13:01:25;7.77;;;3.30;;
31872;SDS011;22407;42.820;23.374;2023-06-10T13:03:51;10.10;;;5.38;;
31872;SDS011;22407;42.820;23.374;2023-06-10T13:06:17;7.57;;;3.30;;
31872;SDS011;22407;42.820;23.374;2023-06-10T13:08:43;8.50;;;3.92;;
31872;SDS011;22407;42.820;23.374;2023-06-10T13:11:09;7.73;;;3.70;;
31872;SDS011;22407;42.820;23.374;2023-06-10T13:13:36;8.53;;;3.90;;
31872;SDS011;22407;42.820;23.374;2023-06-10T13:16:02;7.93;;;3.53;;
31872;SDS011;22407;42.820;23.374;2023-06-10T13:18:27;8.57;;;4.10;;
31872;SDS011;22407;42.820;23.374;2023-06-10T13:20:52;7.80;;;3.40;;
31872;SDS011;22407;42.820;23.374;2023-06-10T13:23:18;7.63;;;3.60;;
31872;SDS011;22407;42.820;23.374;2023-06-10T13:25:43;8.07;;;3.50;;
31872;SDS011;22407;42.820;23.374;2023-06-10T13:28:09;9.10;;;3.85;;
31872;SDS011;22407;42.820;23.374;2023-06-10T13:30:35;9.00;;;3.57;;
31872;SDS011;22407;42.820;23.374;2023-06-10T13:33:00;7.43;;;3.50;;
31872;SDS011;22407;42.820;23.374;2023-06-10T13:35:25;9.53;;;4.03;;
31872;SDS011;22407;42.820;23.374;2023-06-10T13:37:51;8.67;;;3.80;;
31872;SDS011;22407;42.820;23.374;2023-06-10T13:40:16;8.10;;;3.80;;
31872;SDS011;22407;42.820;23.374;2023-06-10T13:42:41;8.60;;;4.50;;
31872;SDS011;22407;42.820;23.374;2023-06-10T13:45:07;11.50;;;5.33;;
31872;SDS011;22407;42.820;23.374;2023-06-10T13:47:32;9.40;;;4.93;;
31872;SDS011;22407;42.820;23.374;2023-06-10T13:49:57;9.33;;;4.00;;
31872;SDS011;22407;42.820;23.374;2023-06-10T13:52:23;10.00;;;4.03;;
31872;SDS011;22407;42.820;23.374;2023-06-10T13:54:48;9.03;;;4.10;;
31872;SDS011;22407;42.820;23.374;2023-06-10T13:57:13;10.50;;;4.20;;
31872;SDS011;22407;42.820;23.374;2023-06-10T13:59:38;9.63;;;4.33;;
31872;SDS011;22407;42.820;23.374;2023-06-10T14:02:04;11.67;;;4.80;;
31872;SDS011;22407;42.820;23.374;2023-06-10T14:04:29;10.90;;;4.60;;
31872;SDS011;22407;42.820;23.374;2023-06-10T14:06:54;8.77;;;3.97;;
31872;SDS011;22407;42.820;23.374;2023-06-10T14:09:20;13.70;;;4.20;;
31872;SDS011;22407;42.820;23.374;2023-06-10T14:11:45;8.63;;;4.17;;
31872;SDS011;22407;42.820;23.374;2023-06-10T14:14:10;12.50;;;5.13;;
31872;SDS011;22407;42.820;23.374;2023-06-10T14:16:36;17.73;;;7.73;;
31872;SDS011;22407;42.820;23.374;2023-06-10T14:19:01;14.50;;;6.17;;
31872;SDS011;22407;42.820;23.374;2023-06-10T14:21:26;22.07;;;10.10;;
31872;SDS011;22407;42.820;23.374;2023-06-10T14:23:52;18.77;;;8.00;;
31872;SDS011;22407;42.820;23.374;2023-06-10T14:26:18;10.93;;;5.15;;
31872;SDS011;22407;42.820;23.374;2023-06-10T14:28:43;9.13;;;4.43;;